sensor_id;sensor_type;location;lat;lon;timestamp;P1;durP1;ratioP1;P2;durP2;ratioP2
10977;SDS011;5542;48.272;10.794;2023-01-09T00:00:12;6.30;;;4.85;;
10977;SDS011;5542;48.272;10.794;2023-01-09T00:02:40;4.80;;;4.20;;
10977;SDS011;5542;48.272;10.794;2023-01-09T00:05:08;5.65;;;4.38;;
10977;SDS011;5542;48.272;10.794;2023-01-09T00:07:35;4.55;;;4.00;;
10977;SDS011;5542;48.272;10.794;2023-01-09T00:10:02;5.75;;;3.75;;
10977;SDS011;5542;48.272;10.794;2023-01-09T00:12:30;4.15;;;3.75;;
10977;SDS011;5542;48.272;10.794;2023-01-09T00:14:57;5.38;;;4.45;;
10977;SDS011;5542;48.272;10.794;2023-01-09T00:17:25;5.30;;;4.50;;
10977;SDS011;5542;48.272;10.794;2023-01-09T00:19:52;5.05;;;4.47;;
10977;SDS011;5542;48.272;10.794;2023-01-09T00:22:18;4.90;;;4.20;;
10977;SDS011;5542;48.272;10.794;2023-01-09T00:24:45;4.68;;;4.20;;
10977;SDS011;5542;48.272;10.794;2023-01-09T00:27:11;4.82;;;3.92;;
10977;SDS011;5542;48.272;10.794;2023-01-09T00:29:38;4.70;;;4.30;;
10977;SDS011;5542;48.272;10.794;2023-01-09T00:32:05;4.07;;;3.67;;
10977;SDS011;5542;48.272;10.794;2023-01-09T00:34:35;4.55;;;4.13;;
10977;SDS011;5542;48.272;10.794;2023-01-09T00:37:03;4.05;;;3.65;;
10977;SDS011;5542;48.272;10.794;2023-01-09T00:39:35;4.68;;;3.80;;
10977;SDS011;5542;48.272;10.794;2023-01-09T00:42:02;3.92;;;3.47;;
10977;SDS011;5542;48.272;10.794;2023-01-09T00:44:32;4.72;;;4.22;;
10977;SDS011;5542;48.272;10.794;2023-01-09T00:47:04;4.72;;;4.10;;
10977;SDS011;5542;48.272;10.794;2023-01-09T00:49:38;4.60;;;4.10;;
10977;SDS011;5542;48.272;10.794;2023-01-09T00:52:06;5.07;;;4.57;;
10977;SDS011;5542;48.272;10.794;2023-01-09T00:54:36;6.50;;;4.63;;
10977;SDS011;5542;48.272;10.794;2023-01-09T00:57:04;4.53;;;4.13;;
10977;SDS011;5542;48.272;10.794;2023-01-09T00:59:31;5.93;;;4.03;;
10977;SDS011;5542;48.272;10.794;2023-01-09T01:01:58;4.13;;;3.72;;
10977;SDS011;5542;48.272;10.794;2023-01-09T01:04:24;4.03;;;3.63;;
10977;SDS011;5542;48.272;10.794;2023-01-09T01:07:10;4.10;;;3.70;;
10977;SDS011;5542;48.272;10.794;2023-01-09T01:09:54;4.50;;;4.10;;
10977;SDS011;5542;48.272;10.794;2023-01-09T01:12:20;4.57;;;3.75;;
10977;SDS011;5542;48.272;10.794;2023-01-09T01:14:47;3.72;;;3.40;;
10977;SDS011;5542;48.272;10.794;2023-01-09T01:17:14;4.07;;;3.67;;
10977;SDS011;5542;48.272;10.794;2023-01-09T01:19:40;4.05;;;3.65;;
10977;SDS011;5542;48.272;10.794;2023-01-09T01:22:07;4.10;;;3.70;;
10977;SDS011;5542;48.272;10.794;2023-01-09T01:24:35;3.75;;;3.45;;
10977;SDS011;5542;48.272;10.794;2023-01-09T01:27:01;4.88;;;4.03;;
10977;SDS011;5542;48.272;10.794;2023-01-09T01:29:28;4.38;;;3.63;;
10977;SDS011;5542;48.272;10.794;2023-01-09T01:31:55;3.88;;;3.58;;
10977;SDS011;5542;48.272;10.794;2023-01-09T01:34:21;4.30;;;3.80;;
10977;SDS011;5542;48.272;10.794;2023-01-09T01:36:48;6.35;;;4.72;;
10977;SDS011;5542;48.272;10.794;2023-01-09T01:39:15;4.60;;;4.00;;
10977;SDS011;5542;48.272;10.794;2023-01-09T01:41:43;4.03;;;3.70;;
10977;SDS011;5542;48.272;10.794;2023-01-09T01:47:09;4.97;;;4.03;;
10977;SDS011;5542;48.272;10.794;2023-01-09T01:49:36;4.65;;;4.20;;
10977;SDS011;5542;48.272;10.794;2023-01-09T01:52:02;4.45;;;4.03;;
10977;SDS011;5542;48.272;10.794;2023-01-09T01:54:29;4.40;;;4.00;;
10977;SDS011;5542;48.272;10.794;2023-01-09T01:56:59;5.10;;;3.92;;
10977;SDS011;5542;48.272;10.794;2023-01-09T01:59:31;3.95;;;3.58;;
10977;SDS011;5542;48.272;10.794;2023-01-09T02:02:00;3.47;;;3.17;;
10977;SDS011;5542;48.272;10.794;2023-01-09T02:04:27;3.30;;;3.10;;
10977;SDS011;5542;48.272;10.794;2023-01-09T02:06:54;3.38;;;3.08;;
10977;SDS011;5542;48.272;10.794;2023-01-09T02:09:22;3.58;;;3.28;;
10977;SDS011;5542;48.272;10.794;2023-01-09T02:11:51;3.70;;;3.40;;
10977;SDS011;5542;48.272;10.794;2023-01-09T02:14:23;4.50;;;4.10;;
10977;SDS011;5542;48.272;10.794;2023-01-09T02:16:58;4.10;;;3.70;;
10977;SDS011;5542;48.272;10.794;2023-01-09T02:19:42;3.83;;;3.53;;
10977;SDS011;5542;48.272;10.794;2023-01-09T02:22:34;3.20;;;2.90;;
10977;SDS011;5542;48.272;10.794;2023-01-09T02:25:07;3.10;;;2.90;;
10977;SDS011;5542;48.272;10.794;2023-01-09T02:27:57;3.55;;;3.25;;
10977;SDS011;5542;48.272;10.794;2023-01-09T02:30:54;3.80;;;3.50;;
10977;SDS011;5542;48.272;10.794;2023-01-09T02:33:28;3.65;;;3.28;;
10977;SDS011;5542;48.272;10.794;2023-01-09T02:36:07;4.47;;;3.70;;
10977;SDS011;5542;48.272;10.794;2023-01-09T02:38:45;4.47;;;4.07;;
10977;SDS011;5542;48.272;10.794;2023-01-09T02:41:24;4.20;;;3.80;;
10977;SDS011;5542;48.272;10.794;2023-01-09T02:44:09;4.30;;;3.90;;
10977;SDS011;5542;48.272;10.794;2023-01-09T02:46:44;3.53;;;3.22;;
10977;SDS011;5542;48.272;10.794;2023-01-09T02:49:11;3.38;;;3.08;;
10977;SDS011;5542;48.272;10.794;2023-01-09T02:51:44;3.80;;;3.50;;
10977;SDS011;5542;48.272;10.794;2023-01-09T02:54:19;3.72;;;3.42;;
10977;SDS011;5542;48.272;10.794;2023-01-09T02:56:57;3.15;;;2.88;;
10977;SDS011;5542;48.272;10.794;2023-01-09T02:59:42;3.30;;;3.00;;
10977;SDS011;5542;48.272;10.794;2023-01-09T03:02:21;3.00;;;2.80;;
10977;SDS011;5542;48.272;10.794;2023-01-09T03:05:03;3.20;;;3.00;;
10977;SDS011;5542;48.272;10.794;2023-01-09T03:07:38;3.42;;;3.13;;
10977;SDS011;5542;48.272;10.794;2023-01-09T03:10:11;3.25;;;3.05;;
10977;SDS011;5542;48.272;10.794;2023-01-09T03:12:43;3.45;;;3.15;;
10977;SDS011;5542;48.272;10.794;2023-01-09T03:15:13;3.35;;;3.05;;
10977;SDS011;5542;48.272;10.794;2023-01-09T03:17:44;3.70;;;3.40;;
10977;SDS011;5542;48.272;10.794;2023-01-09T03:20:14;3.03;;;2.80;;
10977;SDS011;5542;48.272;10.794;2023-01-09T03:22:44;3.28;;;3.05;;
10977;SDS011;5542;48.272;10.794;2023-01-09T03:25:17;4.20;;;3.60;;
10977;SDS011;5542;48.272;10.794;2023-01-09T03:27:44;3.83;;;3.53;;
10977;SDS011;5542;48.272;10.794;2023-01-09T03:30:11;3.80;;;3.40;;
10977;SDS011;5542;48.272;10.794;2023-01-09T03:32:38;3.63;;;3.33;;
10977;SDS011;5542;48.272;10.794;2023-01-09T03:35:06;3.70;;;3.40;;
10977;SDS011;5542;48.272;10.794;2023-01-09T03:37:33;4.50;;;3.75;;
10977;SDS011;5542;48.272;10.794;2023-01-09T03:40:00;4.75;;;3.50;;
10977;SDS011;5542;48.272;10.794;2023-01-09T03:42:26;3.78;;;3.47;;
10977;SDS011;5542;48.272;10.794;2023-01-09T03:44:53;2.55;;;2.35;;
10977;SDS011;5542;48.272;10.794;2023-01-09T03:47:19;1.73;;;1.63;;
10977;SDS011;5542;48.272;10.794;2023-01-09T03:49:46;1.60;;;1.50;;
10977;SDS011;5542;48.272;10.794;2023-01-09T03:52:14;1.60;;;1.50;;
10977;SDS011;5542;48.272;10.794;2023-01-09T03:54:40;2.07;;;1.33;;
10977;SDS011;5542;48.272;10.794;2023-01-09T03:57:07;1.27;;;1.17;;
10977;SDS011;5542;48.272;10.794;2023-01-09T03:59:33;1.02;;;1.02;;
10977;SDS011;5542;48.272;10.794;2023-01-09T04:02:00;1.15;;;1.10;;
10977;SDS011;5542;48.272;10.794;2023-01-09T04:04:26;0.65;;;0.65;;
10977;SDS011;5542;48.272;10.794;2023-01-09T04:06:53;0.93;;;0.93;;
10977;SDS011;5542;48.272;10.794;2023-01-09T04:09:21;1.15;;;0.82;;
10977;SDS011;5542;48.272;10.794;2023-01-09T04:11:47;0.80;;;0.80;;
10977;SDS011;5542;48.272;10.794;2023-01-09T04:14:14;1.20;;;1.10;;
10977;SDS011;5542;48.272;10.794;2023-01-09T04:16:41;1.05;;;1.05;;
10977;SDS011;5542;48.272;10.794;2023-01-09T04:19:07;1.17;;;1.17;;
10977;SDS011;5542;48.272;10.794;2023-01-09T04:21:34;1.05;;;1.05;;
10977;SDS011;5542;48.272;10.794;2023-01-09T04:24:01;0.93;;;0.93;;
10977;SDS011;5542;48.272;10.794;2023-01-09T04:26:29;1.02;;;1.00;;
10977;SDS011;5542;48.272;10.794;2023-01-09T04:28:55;1.20;;;1.20;;
10977;SDS011;5542;48.272;10.794;2023-01-09T04:31:22;1.00;;;0.88;;
10977;SDS011;5542;48.272;10.794;2023-01-09T04:33:48;1.10;;;1.10;;
10977;SDS011;5542;48.272;10.794;2023-01-09T04:36:15;1.00;;;1.00;;
10977;SDS011;5542;48.272;10.794;2023-01-09T04:38:41;1.20;;;1.10;;
10977;SDS011;5542;48.272;10.794;2023-01-09T04:41:08;1.23;;;1.23;;
10977;SDS011;5542;48.272;10.794;2023-01-09T04:43:36;1.27;;;1.25;;
10977;SDS011;5542;48.272;10.794;2023-01-09T04:46:06;1.50;;;0.90;;
10977;SDS011;5542;48.272;10.794;2023-01-09T04:48:32;1.70;;;1.15;;
10977;SDS011;5542;48.272;10.794;2023-01-09T04:50:59;1.35;;;1.30;;
10977;SDS011;5542;48.272;10.794;2023-01-09T04:53:25;0.90;;;0.90;;
10977;SDS011;5542;48.272;10.794;2023-01-09T04:55:52;1.00;;;1.00;;
10977;SDS011;5542;48.272;10.794;2023-01-09T04:58:18;0.95;;;0.95;;
10977;SDS011;5542;48.272;10.794;2023-01-09T05:00:46;0.90;;;0.90;;
10977;SDS011;5542;48.272;10.794;2023-01-09T05:03:13;0.90;;;0.90;;
10977;SDS011;5542;48.272;10.794;2023-01-09T05:05:39;1.25;;;0.88;;
10977;SDS011;5542;48.272;10.794;2023-01-09T05:08:06;0.90;;;0.90;;
10977;SDS011;5542;48.272;10.794;2023-01-09T05:10:33;0.90;;;0.90;;
10977;SDS011;5542;48.272;10.794;2023-01-09T05:12:59;1.00;;;1.00;;
10977;SDS011;5542;48.272;10.794;2023-01-09T05:15:26;0.80;;;0.80;;
10977;SDS011;5542;48.272;10.794;2023-01-09T05:17:56;1.03;;;0.73;;
10977;SDS011;5542;48.272;10.794;2023-01-09T05:20:22;0.40;;;0.40;;
10977;SDS011;5542;48.272;10.794;2023-01-09T05:22:49;0.50;;;0.50;;
10977;SDS011;5542;48.272;10.794;2023-01-09T05:25:15;0.40;;;0.40;;
10977;SDS011;5542;48.272;10.794;2023-01-09T05:27:42;0.50;;;0.50;;
10977;SDS011;5542;48.272;10.794;2023-01-09T05:30:10;0.30;;;0.30;;
10977;SDS011;5542;48.272;10.794;2023-01-09T05:32:37;0.32;;;0.32;;
10977;SDS011;5542;48.272;10.794;2023-01-09T05:35:06;0.35;;;0.35;;
10977;SDS011;5542;48.272;10.794;2023-01-09T05:37:33;1.00;;;0.43;;
10977;SDS011;5542;48.272;10.794;2023-01-09T05:39:59;0.10;;;0.10;;
10977;SDS011;5542;48.272;10.794;2023-01-09T05:42:26;0.20;;;0.20;;
10977;SDS011;5542;48.272;10.794;2023-01-09T05:44:52;0.10;;;0.10;;
10977;SDS011;5542;48.272;10.794;2023-01-09T05:47:19;0.20;;;0.20;;
10977;SDS011;5542;48.272;10.794;2023-01-09T05:49:46;0.30;;;0.22;;
10977;SDS011;5542;48.272;10.794;2023-01-09T05:52:14;0.30;;;0.30;;
10977;SDS011;5542;48.272;10.794;2023-01-09T05:54:40;0.30;;;0.30;;
10977;SDS011;5542;48.272;10.794;2023-01-09T05:57:07;0.20;;;0.20;;
10977;SDS011;5542;48.272;10.794;2023-01-09T05:59:33;0.50;;;0.28;;
10977;SDS011;5542;48.272;10.794;2023-01-09T06:02:00;0.20;;;0.20;;
10977;SDS011;5542;48.272;10.794;2023-01-09T06:04:26;0.20;;;0.20;;
10977;SDS011;5542;48.272;10.794;2023-01-09T06:06:54;0.30;;;0.30;;
10977;SDS011;5542;48.272;10.794;2023-01-09T06:09:21;0.30;;;0.30;;
10977;SDS011;5542;48.272;10.794;2023-01-09T06:11:48;0.15;;;0.15;;
10977;SDS011;5542;48.272;10.794;2023-01-09T06:14:15;0.20;;;0.20;;
10977;SDS011;5542;48.272;10.794;2023-01-09T06:16:42;0.30;;;0.30;;
10977;SDS011;5542;48.272;10.794;2023-01-09T06:19:08;0.22;;;0.22;;
10977;SDS011;5542;48.272;10.794;2023-01-09T06:21:36;0.30;;;0.30;;
10977;SDS011;5542;48.272;10.794;2023-01-09T06:24:03;0.30;;;0.30;;
10977;SDS011;5542;48.272;10.794;2023-01-09T06:26:31;0.30;;;0.30;;
10977;SDS011;5542;48.272;10.794;2023-01-09T06:28:58;0.40;;;0.40;;
10977;SDS011;5542;48.272;10.794;2023-01-09T06:31:25;0.50;;;0.50;;
10977;SDS011;5542;48.272;10.794;2023-01-09T06:33:51;0.40;;;0.40;;
10977;SDS011;5542;48.272;10.794;2023-01-09T06:36:18;0.40;;;0.40;;
10977;SDS011;5542;48.272;10.794;2023-01-09T06:38:45;1.38;;;0.52;;
10977;SDS011;5542;48.272;10.794;2023-01-09T06:41:12;0.40;;;0.40;;
10977;SDS011;5542;48.272;10.794;2023-01-09T06:43:39;0.52;;;0.52;;
10977;SDS011;5542;48.272;10.794;2023-01-09T06:46:06;0.50;;;0.30;;
10977;SDS011;5542;48.272;10.794;2023-01-09T06:48:33;0.40;;;0.40;;
10977;SDS011;5542;48.272;10.794;2023-01-09T06:50:59;0.30;;;0.30;;
10977;SDS011;5542;48.272;10.794;2023-01-09T06:53:26;0.50;;;0.47;;
10977;SDS011;5542;48.272;10.794;2023-01-09T06:55:53;0.50;;;0.40;;
10977;SDS011;5542;48.272;10.794;2023-01-09T06:58:19;1.10;;;0.22;;
10977;SDS011;5542;48.272;10.794;2023-01-09T07:00:47;0.47;;;0.38;;
10977;SDS011;5542;48.272;10.794;2023-01-09T07:03:14;0.10;;;0.10;;
10977;SDS011;5542;48.272;10.794;2023-01-09T07:05:44;0.30;;;0.30;;
10977;SDS011;5542;48.272;10.794;2023-01-09T07:08:11;0.30;;;0.30;;
10977;SDS011;5542;48.272;10.794;2023-01-09T07:10:39;0.28;;;0.25;;
10977;SDS011;5542;48.272;10.794;2023-01-09T07:13:06;0.30;;;0.30;;
10977;SDS011;5542;48.272;10.794;2023-01-09T07:15:32;0.30;;;0.30;;
10977;SDS011;5542;48.272;10.794;2023-01-09T07:18:00;0.30;;;0.30;;
10977;SDS011;5542;48.272;10.794;2023-01-09T07:20:27;0.20;;;0.20;;
10977;SDS011;5542;48.272;10.794;2023-01-09T07:22:54;0.30;;;0.30;;
10977;SDS011;5542;48.272;10.794;2023-01-09T07:25:20;0.40;;;0.40;;
10977;SDS011;5542;48.272;10.794;2023-01-09T07:27:47;0.40;;;0.40;;
10977;SDS011;5542;48.272;10.794;2023-01-09T07:30:13;0.25;;;0.22;;
10977;SDS011;5542;48.272;10.794;2023-01-09T07:32:40;0.20;;;0.20;;
10977;SDS011;5542;48.272;10.794;2023-01-09T07:35:08;0.35;;;0.35;;
10977;SDS011;5542;48.272;10.794;2023-01-09T07:37:35;0.30;;;0.30;;
10977;SDS011;5542;48.272;10.794;2023-01-09T07:40:02;0.20;;;0.20;;
10977;SDS011;5542;48.272;10.794;2023-01-09T07:42:29;0.47;;;0.47;;
10977;SDS011;5542;48.272;10.794;2023-01-09T07:44:56;0.20;;;0.20;;
10977;SDS011;5542;48.272;10.794;2023-01-09T07:47:23;0.40;;;0.40;;
10977;SDS011;5542;48.272;10.794;2023-01-09T07:49:49;0.50;;;0.50;;
10977;SDS011;5542;48.272;10.794;2023-01-09T07:52:17;0.40;;;0.40;;
10977;SDS011;5542;48.272;10.794;2023-01-09T07:54:44;0.32;;;0.32;;
10977;SDS011;5542;48.272;10.794;2023-01-09T07:57:10;0.30;;;0.30;;
10977;SDS011;5542;48.272;10.794;2023-01-09T07:59:37;0.70;;;0.70;;
10977;SDS011;5542;48.272;10.794;2023-01-09T08:02:03;0.50;;;0.50;;
10977;SDS011;5542;48.272;10.794;2023-01-09T08:04:31;0.90;;;0.38;;
10977;SDS011;5542;48.272;10.794;2023-01-09T08:06:57;0.20;;;0.20;;
10977;SDS011;5542;48.272;10.794;2023-01-09T08:09:25;0.88;;;0.38;;
10977;SDS011;5542;48.272;10.794;2023-01-09T08:11:52;0.40;;;0.40;;
10977;SDS011;5542;48.272;10.794;2023-01-09T08:14:18;1.75;;;1.25;;
10977;SDS011;5542;48.272;10.794;2023-01-09T08:16:45;0.68;;;0.68;;
10977;SDS011;5542;48.272;10.794;2023-01-09T08:19:11;0.40;;;0.40;;
10977;SDS011;5542;48.272;10.794;2023-01-09T08:21:38;0.45;;;0.38;;
10977;SDS011;5542;48.272;10.794;2023-01-09T08:24:05;0.40;;;0.40;;
10977;SDS011;5542;48.272;10.794;2023-01-09T08:26:33;1.30;;;0.75;;
10977;SDS011;5542;48.272;10.794;2023-01-09T08:29:00;1.08;;;0.80;;
10977;SDS011;5542;48.272;10.794;2023-01-09T08:31:26;1.20;;;0.70;;
10977;SDS011;5542;48.272;10.794;2023-01-09T08:33:53;0.43;;;0.43;;
10977;SDS011;5542;48.272;10.794;2023-01-09T08:36:20;1.00;;;0.47;;
10977;SDS011;5542;48.272;10.794;2023-01-09T08:38:46;0.50;;;0.50;;
10977;SDS011;5542;48.272;10.794;2023-01-09T08:41:13;1.35;;;1.15;;
10977;SDS011;5542;48.272;10.794;2023-01-09T08:43:58;0.40;;;0.40;;
10977;SDS011;5542;48.272;10.794;2023-01-09T08:46:42;0.50;;;0.50;;
10977;SDS011;5542;48.272;10.794;2023-01-09T08:49:40;0.90;;;0.50;;
10977;SDS011;5542;48.272;10.794;2023-01-09T08:52:07;0.38;;;0.38;;
10977;SDS011;5542;48.272;10.794;2023-01-09T08:54:34;1.20;;;0.50;;
10977;SDS011;5542;48.272;10.794;2023-01-09T08:57:01;2.13;;;0.50;;
10977;SDS011;5542;48.272;10.794;2023-01-09T08:59:28;0.30;;;0.30;;
10977;SDS011;5542;48.272;10.794;2023-01-09T09:01:55;0.50;;;0.50;;
10977;SDS011;5542;48.272;10.794;2023-01-09T09:04:22;1.02;;;0.60;;
10977;SDS011;5542;48.272;10.794;2023-01-09T09:06:49;0.93;;;0.80;;
10977;SDS011;5542;48.272;10.794;2023-01-09T09:09:16;2.45;;;1.60;;
10977;SDS011;5542;48.272;10.794;2023-01-09T09:11:43;1.05;;;0.90;;
10977;SDS011;5542;48.272;10.794;2023-01-09T09:14:09;1.98;;;1.75;;
10977;SDS011;5542;48.272;10.794;2023-01-09T09:16:55;1.27;;;0.68;;
10977;SDS011;5542;48.272;10.794;2023-01-09T09:19:21;0.70;;;0.70;;
10977;SDS011;5542;48.272;10.794;2023-01-09T09:21:48;0.57;;;0.57;;
10977;SDS011;5542;48.272;10.794;2023-01-09T09:24:14;4.17;;;2.40;;
10977;SDS011;5542;48.272;10.794;2023-01-09T09:26:41;2.25;;;1.23;;
10977;SDS011;5542;48.272;10.794;2023-01-09T09:29:08;1.88;;;0.98;;
10977;SDS011;5542;48.272;10.794;2023-01-09T09:31:35;0.95;;;0.65;;
10977;SDS011;5542;48.272;10.794;2023-01-09T09:34:03;0.60;;;0.60;;
10977;SDS011;5542;48.272;10.794;2023-01-09T09:36:30;0.63;;;0.57;;
10977;SDS011;5542;48.272;10.794;2023-01-09T09:38:56;1.13;;;1.02;;
10977;SDS011;5542;48.272;10.794;2023-01-09T09:41:29;1.90;;;1.05;;
10977;SDS011;5542;48.272;10.794;2023-01-09T09:44:37;1.92;;;0.98;;
10977;SDS011;5542;48.272;10.794;2023-01-09T09:47:30;3.58;;;1.15;;
10977;SDS011;5542;48.272;10.794;2023-01-09T09:50:12;3.40;;;1.23;;
10977;SDS011;5542;48.272;10.794;2023-01-09T09:52:49;2.58;;;1.17;;
10977;SDS011;5542;48.272;10.794;2023-01-09T09:55:23;1.92;;;1.45;;
10977;SDS011;5542;48.272;10.794;2023-01-09T09:57:54;2.23;;;1.20;;
10977;SDS011;5542;48.272;10.794;2023-01-09T10:00:23;2.90;;;1.55;;
10977;SDS011;5542;48.272;10.794;2023-01-09T10:02:52;4.45;;;1.98;;
10977;SDS011;5542;48.272;10.794;2023-01-09T10:05:26;1.13;;;0.88;;
10977;SDS011;5542;48.272;10.794;2023-01-09T10:07:56;2.17;;;1.03;;
10977;SDS011;5542;48.272;10.794;2023-01-09T10:10:31;0.80;;;0.65;;
10977;SDS011;5542;48.272;10.794;2023-01-09T10:13:00;1.27;;;0.80;;
10977;SDS011;5542;48.272;10.794;2023-01-09T10:15:50;0.82;;;0.70;;
10977;SDS011;5542;48.272;10.794;2023-01-09T10:18:28;0.63;;;0.52;;
10977;SDS011;5542;48.272;10.794;2023-01-09T10:21:03;1.05;;;0.95;;
10977;SDS011;5542;48.272;10.794;2023-01-09T10:23:41;0.57;;;0.57;;
10977;SDS011;5542;48.272;10.794;2023-01-09T10:26:35;0.73;;;0.73;;
10977;SDS011;5542;48.272;10.794;2023-01-09T10:29:10;1.95;;;1.33;;
10977;SDS011;5542;48.272;10.794;2023-01-09T10:31:50;0.95;;;0.85;;
10977;SDS011;5542;48.272;10.794;2023-01-09T10:34:32;1.10;;;0.60;;
10977;SDS011;5542;48.272;10.794;2023-01-09T10:37:19;1.63;;;1.52;;
10977;SDS011;5542;48.272;10.794;2023-01-09T10:39:49;0.70;;;0.70;;
10977;SDS011;5542;48.272;10.794;2023-01-09T10:42:20;1.00;;;0.90;;
10977;SDS011;5542;48.272;10.794;2023-01-09T10:44:55;1.90;;;1.20;;
10977;SDS011;5542;48.272;10.794;2023-01-09T10:47:28;0.90;;;0.90;;
10977;SDS011;5542;48.272;10.794;2023-01-09T10:49:58;1.00;;;0.43;;
10977;SDS011;5542;48.272;10.794;2023-01-09T10:52:31;0.73;;;0.65;;
10977;SDS011;5542;48.272;10.794;2023-01-09T10:55:04;0.70;;;0.50;;
10977;SDS011;5542;48.272;10.794;2023-01-09T10:57:43;1.50;;;0.80;;
10977;SDS011;5542;48.272;10.794;2023-01-09T11:00:14;1.02;;;0.68;;
10977;SDS011;5542;48.272;10.794;2023-01-09T11:02:44;3.83;;;2.95;;
10977;SDS011;5542;48.272;10.794;2023-01-09T11:05:12;1.35;;;0.85;;
10977;SDS011;5542;48.272;10.794;2023-01-09T11:07:45;0.90;;;0.63;;
10977;SDS011;5542;48.272;10.794;2023-01-09T11:10:14;0.73;;;0.73;;
10977;SDS011;5542;48.272;10.794;2023-01-09T11:12:41;1.38;;;0.88;;
10977;SDS011;5542;48.272;10.794;2023-01-09T11:15:24;0.60;;;0.45;;
10977;SDS011;5542;48.272;10.794;2023-01-09T11:17:57;1.55;;;1.02;;
10977;SDS011;5542;48.272;10.794;2023-01-09T11:20:38;0.80;;;0.40;;
10977;SDS011;5542;48.272;10.794;2023-01-09T11:23:18;4.95;;;1.90;;
10977;SDS011;5542;48.272;10.794;2023-01-09T11:25:50;2.50;;;0.80;;
10977;SDS011;5542;48.272;10.794;2023-01-09T11:28:18;1.13;;;0.70;;
10977;SDS011;5542;48.272;10.794;2023-01-09T11:30:52;1.23;;;0.60;;
10977;SDS011;5542;48.272;10.794;2023-01-09T11:33:21;1.30;;;0.75;;
10977;SDS011;5542;48.272;10.794;2023-01-09T11:38:45;1.00;;;0.65;;
10977;SDS011;5542;48.272;10.794;2023-01-09T11:41:16;0.82;;;0.82;;
10977;SDS011;5542;48.272;10.794;2023-01-09T11:43:44;2.10;;;1.90;;
10977;SDS011;5542;48.272;10.794;2023-01-09T11:46:28;1.52;;;1.30;;
10977;SDS011;5542;48.272;10.794;2023-01-09T11:48:57;1.17;;;0.80;;
10977;SDS011;5542;48.272;10.794;2023-01-09T11:51:26;1.03;;;0.93;;
10977;SDS011;5542;48.272;10.794;2023-01-09T11:53:57;1.60;;;0.70;;
10977;SDS011;5542;48.272;10.794;2023-01-09T11:56:30;1.70;;;1.00;;
10977;SDS011;5542;48.272;10.794;2023-01-09T11:58:57;0.75;;;0.75;;
10977;SDS011;5542;48.272;10.794;2023-01-09T12:01:29;2.25;;;0.60;;
10977;SDS011;5542;48.272;10.794;2023-01-09T12:04:09;1.48;;;1.02;;
10977;SDS011;5542;48.272;10.794;2023-01-09T12:06:45;1.10;;;0.70;;
10977;SDS011;5542;48.272;10.794;2023-01-09T12:09:27;1.40;;;1.30;;
10977;SDS011;5542;48.272;10.794;2023-01-09T12:12:02;3.28;;;2.85;;
10977;SDS011;5542;48.272;10.794;2023-01-09T12:14:39;1.17;;;0.90;;
10977;SDS011;5542;48.272;10.794;2023-01-09T12:20:23;1.00;;;0.50;;
10977;SDS011;5542;48.272;10.794;2023-01-09T12:23:00;0.80;;;0.80;;
10977;SDS011;5542;48.272;10.794;2023-01-09T12:25:43;1.90;;;0.77;;
10977;SDS011;5542;48.272;10.794;2023-01-09T12:31:21;1.60;;;0.60;;
10977;SDS011;5542;48.272;10.794;2023-01-09T12:33:57;3.45;;;2.55;;
10977;SDS011;5542;48.272;10.794;2023-01-09T12:36:37;1.73;;;1.23;;
10977;SDS011;5542;48.272;10.794;2023-01-09T12:39:11;1.17;;;1.17;;
10977;SDS011;5542;48.272;10.794;2023-01-09T12:41:56;3.53;;;2.10;;
10977;SDS011;5542;48.272;10.794;2023-01-09T12:44:39;1.53;;;0.90;;
10977;SDS011;5542;48.272;10.794;2023-01-09T12:47:27;1.08;;;0.68;;
10977;SDS011;5542;48.272;10.794;2023-01-09T12:50:17;0.70;;;0.70;;
10977;SDS011;5542;48.272;10.794;2023-01-09T12:52:59;1.23;;;0.70;;
10977;SDS011;5542;48.272;10.794;2023-01-09T12:55:32;0.85;;;0.57;;
10977;SDS011;5542;48.272;10.794;2023-01-09T12:58:05;0.55;;;0.55;;
10977;SDS011;5542;48.272;10.794;2023-01-09T13:00:39;0.90;;;0.70;;
10977;SDS011;5542;48.272;10.794;2023-01-09T13:03:09;1.40;;;1.30;;
10977;SDS011;5542;48.272;10.794;2023-01-09T13:05:41;1.75;;;0.90;;
10977;SDS011;5542;48.272;10.794;2023-01-09T13:08:11;2.78;;;1.40;;
10977;SDS011;5542;48.272;10.794;2023-01-09T13:10:42;1.20;;;0.95;;
10977;SDS011;5542;48.272;10.794;2023-01-09T13:13:15;1.75;;;1.15;;
10977;SDS011;5542;48.272;10.794;2023-01-09T13:15:48;0.87;;;0.70;;
10977;SDS011;5542;48.272;10.794;2023-01-09T13:18:19;1.90;;;0.90;;
10977;SDS011;5542;48.272;10.794;2023-01-09T13:20:52;0.63;;;0.63;;
10977;SDS011;5542;48.272;10.794;2023-01-09T13:23:21;0.80;;;0.80;;
10977;SDS011;5542;48.272;10.794;2023-01-09T13:25:56;1.63;;;0.85;;
10977;SDS011;5542;48.272;10.794;2023-01-09T13:28:27;2.00;;;0.70;;
10977;SDS011;5542;48.272;10.794;2023-01-09T13:34:00;0.80;;;0.80;;
10977;SDS011;5542;48.272;10.794;2023-01-09T13:36:31;0.82;;;0.80;;
10977;SDS011;5542;48.272;10.794;2023-01-09T13:39:01;1.80;;;0.80;;
10977;SDS011;5542;48.272;10.794;2023-01-09T13:41:28;2.00;;;1.10;;
10977;SDS011;5542;48.272;10.794;2023-01-09T13:44:24;1.88;;;1.00;;
10977;SDS011;5542;48.272;10.794;2023-01-09T13:46:54;1.17;;;1.00;;
10977;SDS011;5542;48.272;10.794;2023-01-09T13:49:29;2.15;;;1.10;;
10977;SDS011;5542;48.272;10.794;2023-01-09T13:51:58;1.25;;;0.60;;
10977;SDS011;5542;48.272;10.794;2023-01-09T13:57:26;1.30;;;1.00;;
10977;SDS011;5542;48.272;10.794;2023-01-09T13:59:58;1.60;;;0.70;;
10977;SDS011;5542;48.272;10.794;2023-01-09T14:03:04;1.20;;;1.08;;
10977;SDS011;5542;48.272;10.794;2023-01-09T14:09:06;2.25;;;1.00;;
10977;SDS011;5542;48.272;10.794;2023-01-09T14:11:37;1.42;;;1.33;;
10977;SDS011;5542;48.272;10.794;2023-01-09T14:14:06;1.10;;;1.00;;
10977;SDS011;5542;48.272;10.794;2023-01-09T14:16:47;0.80;;;0.80;;
10977;SDS011;5542;48.272;10.794;2023-01-09T14:19:21;1.63;;;0.60;;
10977;SDS011;5542;48.272;10.794;2023-01-09T14:21:56;0.95;;;0.45;;
10977;SDS011;5542;48.272;10.794;2023-01-09T14:24:24;0.50;;;0.50;;
10977;SDS011;5542;48.272;10.794;2023-01-09T14:26:54;0.30;;;0.30;;
10977;SDS011;5542;48.272;10.794;2023-01-09T14:35:09;2.45;;;1.73;;
10977;SDS011;5542;48.272;10.794;2023-01-09T14:37:41;2.40;;;1.27;;
10977;SDS011;5542;48.272;10.794;2023-01-09T14:40:14;3.05;;;2.20;;
10977;SDS011;5542;48.272;10.794;2023-01-09T14:42:48;2.50;;;1.88;;
10977;SDS011;5542;48.272;10.794;2023-01-09T14:45:19;2.35;;;2.15;;
10977;SDS011;5542;48.272;10.794;2023-01-09T14:47:50;1.70;;;1.40;;
10977;SDS011;5542;48.272;10.794;2023-01-09T14:50:21;2.50;;;2.30;;
10977;SDS011;5542;48.272;10.794;2023-01-09T14:52:54;1.80;;;1.60;;
10977;SDS011;5542;48.272;10.794;2023-01-09T14:55:29;2.42;;;2.15;;
10977;SDS011;5542;48.272;10.794;2023-01-09T14:58:10;1.77;;;1.60;;
10977;SDS011;5542;48.272;10.794;2023-01-09T15:00:45;2.87;;;2.53;;
10977;SDS011;5542;48.272;10.794;2023-01-09T15:03:15;2.28;;;2.00;;
10977;SDS011;5542;48.272;10.794;2023-01-09T15:05:42;4.72;;;3.65;;
10977;SDS011;5542;48.272;10.794;2023-01-09T15:08:11;3.92;;;2.95;;
10977;SDS011;5542;48.272;10.794;2023-01-09T15:10:42;2.53;;;2.30;;
10977;SDS011;5542;48.272;10.794;2023-01-09T15:13:12;2.75;;;2.22;;
10977;SDS011;5542;48.272;10.794;2023-01-09T15:15:42;3.80;;;3.30;;
10977;SDS011;5542;48.272;10.794;2023-01-09T15:18:11;4.32;;;3.92;;
10977;SDS011;5542;48.272;10.794;2023-01-09T15:20:45;2.13;;;1.92;;
10977;SDS011;5542;48.272;10.794;2023-01-09T15:23:20;4.90;;;2.35;;
10977;SDS011;5542;48.272;10.794;2023-01-09T15:25:47;1.33;;;1.20;;
10977;SDS011;5542;48.272;10.794;2023-01-09T15:31:08;2.55;;;2.35;;
10977;SDS011;5542;48.272;10.794;2023-01-09T15:33:40;1.60;;;1.50;;
10977;SDS011;5542;48.272;10.794;2023-01-09T15:36:10;2.20;;;2.00;;
10977;SDS011;5542;48.272;10.794;2023-01-09T15:38:40;2.92;;;2.55;;